sensor_id;sensor_type;location;lat;lon;timestamp;P1;durP1;ratioP1;P2;durP2;ratioP2
70997;SDS011;58663;52.040;4.634;2023-11-21T00:00:32;41.17;;;13.70;;
70997;SDS011;58663;52.040;4.634;2023-11-21T00:02:57;37.03;;;13.93;;
70997;SDS011;58663;52.040;4.634;2023-11-21T00:05:22;32.28;;;14.00;;
70997;SDS011;58663;52.040;4.634;2023-11-21T00:07:48;38.75;;;14.65;;
70997;SDS011;58663;52.040;4.634;2023-11-21T00:10:13;37.50;;;13.50;;
70997;SDS011;58663;52.040;4.634;2023-11-21T00:12:39;40.90;;;14.15;;
70997;SDS011;58663;52.040;4.634;2023-11-21T00:15:07;38.63;;;14.63;;
70997;SDS011;58663;52.040;4.634;2023-11-21T00:17:35;34.95;;;15.05;;
70997;SDS011;58663;52.040;4.634;2023-11-21T00:20:01;42.15;;;15.27;;
70997;SDS011;58663;52.040;4.634;2023-11-21T00:22:29;42.90;;;14.50;;
70997;SDS011;58663;52.040;4.634;2023-11-21T00:24:54;39.95;;;15.55;;
70997;SDS011;58663;52.040;4.634;2023-11-21T00:27:19;35.38;;;14.13;;
70997;SDS011;58663;52.040;4.634;2023-11-21T00:29:45;35.83;;;14.02;;
70997;SDS011;58663;52.040;4.634;2023-11-21T00:32:10;32.47;;;13.18;;
70997;SDS011;58663;52.040;4.634;2023-11-21T00:34:36;31.00;;;13.15;;
70997;SDS011;58663;52.040;4.634;2023-11-21T00:37:02;31.15;;;13.25;;
70997;SDS011;58663;52.040;4.634;2023-11-21T00:39:28;27.85;;;11.82;;
70997;SDS011;58663;52.040;4.634;2023-11-21T00:41:53;35.38;;;13.32;;
70997;SDS011;58663;52.040;4.634;2023-11-21T00:44:18;34.00;;;12.77;;
70997;SDS011;58663;52.040;4.634;2023-11-21T00:46:44;33.53;;;12.55;;
70997;SDS011;58663;52.040;4.634;2023-11-21T00:49:09;35.25;;;12.88;;
70997;SDS011;58663;52.040;4.634;2023-11-21T00:51:34;36.38;;;13.85;;
70997;SDS011;58663;52.040;4.634;2023-11-21T00:54:00;38.58;;;13.57;;
70997;SDS011;58663;52.040;4.634;2023-11-21T00:56:26;39.25;;;12.77;;
70997;SDS011;58663;52.040;4.634;2023-11-21T00:58:51;37.20;;;13.05;;
70997;SDS011;58663;52.040;4.634;2023-11-21T01:01:18;39.70;;;13.18;;
70997;SDS011;58663;52.040;4.634;2023-11-21T01:03:45;35.13;;;12.98;;
70997;SDS011;58663;52.040;4.634;2023-11-21T01:06:11;40.03;;;11.32;;
70997;SDS011;58663;52.040;4.634;2023-11-21T01:08:36;30.73;;;11.73;;
70997;SDS011;58663;52.040;4.634;2023-11-21T01:11:02;44.35;;;14.05;;
70997;SDS011;58663;52.040;4.634;2023-11-21T01:13:27;36.15;;;12.65;;
70997;SDS011;58663;52.040;4.634;2023-11-21T01:15:53;40.25;;;12.65;;
70997;SDS011;58663;52.040;4.634;2023-11-21T01:18:18;43.15;;;12.48;;
70997;SDS011;58663;52.040;4.634;2023-11-21T01:20:44;46.40;;;11.93;;
70997;SDS011;58663;52.040;4.634;2023-11-21T01:23:11;41.35;;;12.05;;
70997;SDS011;58663;52.040;4.634;2023-11-21T01:25:37;37.55;;;11.98;;
70997;SDS011;58663;52.040;4.634;2023-11-21T01:28:03;37.08;;;11.43;;
70997;SDS011;58663;52.040;4.634;2023-11-21T01:30:28;25.60;;;11.50;;
70997;SDS011;58663;52.040;4.634;2023-11-21T01:32:53;30.48;;;10.43;;
70997;SDS011;58663;52.040;4.634;2023-11-21T01:35:19;35.03;;;12.23;;
70997;SDS011;58663;52.040;4.634;2023-11-21T01:37:44;30.02;;;11.63;;
70997;SDS011;58663;52.040;4.634;2023-11-21T01:40:09;28.35;;;11.02;;
70997;SDS011;58663;52.040;4.634;2023-11-21T01:42:38;39.25;;;11.80;;
70997;SDS011;58663;52.040;4.634;2023-11-21T01:45:04;29.25;;;11.07;;
70997;SDS011;58663;52.040;4.634;2023-11-21T01:47:33;28.23;;;11.27;;
70997;SDS011;58663;52.040;4.634;2023-11-21T01:49:59;26.15;;;10.57;;
70997;SDS011;58663;52.040;4.634;2023-11-21T01:52:24;32.63;;;11.77;;
70997;SDS011;58663;52.040;4.634;2023-11-21T01:54:50;34.05;;;10.60;;
70997;SDS011;58663;52.040;4.634;2023-11-21T01:57:15;29.23;;;11.35;;
70997;SDS011;58663;52.040;4.634;2023-11-21T01:59:41;29.08;;;10.55;;
70997;SDS011;58663;52.040;4.634;2023-11-21T02:02:07;37.17;;;11.60;;
70997;SDS011;58663;52.040;4.634;2023-11-21T02:04:33;28.67;;;10.95;;
70997;SDS011;58663;52.040;4.634;2023-11-21T02:06:59;31.40;;;11.15;;
70997;SDS011;58663;52.040;4.634;2023-11-21T02:09:28;30.35;;;10.80;;
70997;SDS011;58663;52.040;4.634;2023-11-21T02:14:20;41.92;;;10.70;;
70997;SDS011;58663;52.040;4.634;2023-11-21T02:16:47;30.25;;;11.82;;
70997;SDS011;58663;52.040;4.634;2023-11-21T02:19:15;36.25;;;11.65;;
70997;SDS011;58663;52.040;4.634;2023-11-21T02:21:44;41.95;;;12.38;;
70997;SDS011;58663;52.040;4.634;2023-11-21T02:24:10;30.27;;;12.07;;
70997;SDS011;58663;52.040;4.634;2023-11-21T02:26:36;37.97;;;12.18;;
70997;SDS011;58663;52.040;4.634;2023-11-21T02:29:01;37.25;;;11.68;;
70997;SDS011;58663;52.040;4.634;2023-11-21T02:31:29;31.70;;;11.98;;
70997;SDS011;58663;52.040;4.634;2023-11-21T02:33:55;34.00;;;12.75;;
70997;SDS011;58663;52.040;4.634;2023-11-21T02:36:20;37.25;;;12.45;;
70997;SDS011;58663;52.040;4.634;2023-11-21T02:38:46;32.17;;;12.35;;
70997;SDS011;58663;52.040;4.634;2023-11-21T02:41:12;40.65;;;13.35;;
70997;SDS011;58663;52.040;4.634;2023-11-21T02:43:38;38.05;;;13.38;;
70997;SDS011;58663;52.040;4.634;2023-11-21T02:46:03;39.65;;;12.10;;
70997;SDS011;58663;52.040;4.634;2023-11-21T02:48:29;42.13;;;12.48;;
70997;SDS011;58663;52.040;4.634;2023-11-21T02:50:55;34.85;;;12.02;;
70997;SDS011;58663;52.040;4.634;2023-11-21T02:53:21;27.13;;;11.88;;
70997;SDS011;58663;52.040;4.634;2023-11-21T02:55:46;29.77;;;12.40;;
70997;SDS011;58663;52.040;4.634;2023-11-21T02:58:12;36.03;;;12.10;;
70997;SDS011;58663;52.040;4.634;2023-11-21T03:00:37;38.10;;;12.88;;
70997;SDS011;58663;52.040;4.634;2023-11-21T03:03:02;36.00;;;12.10;;
70997;SDS011;58663;52.040;4.634;2023-11-21T03:05:29;38.97;;;12.18;;
70997;SDS011;58663;52.040;4.634;2023-11-21T03:07:54;29.42;;;12.30;;
70997;SDS011;58663;52.040;4.634;2023-11-21T03:10:20;33.85;;;12.45;;
70997;SDS011;58663;52.040;4.634;2023-11-21T03:12:45;31.58;;;12.90;;
70997;SDS011;58663;52.040;4.634;2023-11-21T03:15:11;40.90;;;11.82;;
70997;SDS011;58663;52.040;4.634;2023-11-21T03:17:36;36.30;;;12.38;;
70997;SDS011;58663;52.040;4.634;2023-11-21T03:20:02;41.33;;;12.98;;
70997;SDS011;58663;52.040;4.634;2023-11-21T03:22:28;37.58;;;12.23;;
70997;SDS011;58663;52.040;4.634;2023-11-21T03:24:54;36.58;;;12.88;;
70997;SDS011;58663;52.040;4.634;2023-11-21T03:27:19;40.40;;;11.70;;
70997;SDS011;58663;52.040;4.634;2023-11-21T03:29:44;47.22;;;12.27;;
70997;SDS011;58663;52.040;4.634;2023-11-21T03:32:11;30.33;;;11.27;;
70997;SDS011;58663;52.040;4.634;2023-11-21T03:34:41;35.10;;;11.55;;
70997;SDS011;58663;52.040;4.634;2023-11-21T03:37:18;37.50;;;12.73;;
70997;SDS011;58663;52.040;4.634;2023-11-21T03:39:45;34.42;;;11.13;;
70997;SDS011;58663;52.040;4.634;2023-11-21T03:42:11;32.85;;;12.13;;
70997;SDS011;58663;52.040;4.634;2023-11-21T03:44:36;28.77;;;11.02;;
70997;SDS011;58663;52.040;4.634;2023-11-21T03:47:02;28.30;;;11.43;;
70997;SDS011;58663;52.040;4.634;2023-11-21T03:49:27;25.83;;;10.30;;
70997;SDS011;58663;52.040;4.634;2023-11-21T03:51:54;40.85;;;11.48;;
70997;SDS011;58663;52.040;4.634;2023-11-21T03:54:19;24.55;;;11.48;;
70997;SDS011;58663;52.040;4.634;2023-11-21T03:56:45;29.23;;;10.80;;
70997;SDS011;58663;52.040;4.634;2023-11-21T03:59:10;31.67;;;11.55;;
70997;SDS011;58663;52.040;4.634;2023-11-21T04:01:36;35.65;;;11.35;;
70997;SDS011;58663;52.040;4.634;2023-11-21T04:04:02;31.38;;;11.02;;
70997;SDS011;58663;52.040;4.634;2023-11-21T04:06:27;31.50;;;11.05;;
70997;SDS011;58663;52.040;4.634;2023-11-21T04:08:53;27.25;;;11.65;;
70997;SDS011;58663;52.040;4.634;2023-11-21T04:11:18;33.65;;;10.90;;
70997;SDS011;58663;52.040;4.634;2023-11-21T04:13:43;29.67;;;11.60;;
70997;SDS011;58663;52.040;4.634;2023-11-21T04:16:09;32.22;;;11.00;;
70997;SDS011;58663;52.040;4.634;2023-11-21T04:18:37;27.85;;;11.27;;
70997;SDS011;58663;52.040;4.634;2023-11-21T04:21:05;29.55;;;11.77;;
70997;SDS011;58663;52.040;4.634;2023-11-21T04:23:30;39.20;;;11.52;;
70997;SDS011;58663;52.040;4.634;2023-11-21T04:25:57;23.95;;;9.52;;
70997;SDS011;58663;52.040;4.634;2023-11-21T04:28:25;33.90;;;10.65;;
70997;SDS011;58663;52.040;4.634;2023-11-21T04:30:50;24.92;;;9.77;;
70997;SDS011;58663;52.040;4.634;2023-11-21T04:33:16;28.55;;;10.40;;
70997;SDS011;58663;52.040;4.634;2023-11-21T04:35:42;37.15;;;10.88;;
70997;SDS011;58663;52.040;4.634;2023-11-21T04:38:07;31.13;;;10.10;;
70997;SDS011;58663;52.040;4.634;2023-11-21T04:40:32;26.67;;;9.43;;
70997;SDS011;58663;52.040;4.634;2023-11-21T04:42:58;35.30;;;10.80;;
70997;SDS011;58663;52.040;4.634;2023-11-21T04:45:23;34.97;;;10.95;;
70997;SDS011;58663;52.040;4.634;2023-11-21T04:47:48;31.23;;;11.27;;
70997;SDS011;58663;52.040;4.634;2023-11-21T04:50:14;33.97;;;12.52;;
70997;SDS011;58663;52.040;4.634;2023-11-21T04:52:39;28.98;;;10.38;;
70997;SDS011;58663;52.040;4.634;2023-11-21T04:55:04;36.72;;;11.18;;
70997;SDS011;58663;52.040;4.634;2023-11-21T04:57:32;30.05;;;11.50;;
70997;SDS011;58663;52.040;4.634;2023-11-21T04:59:57;34.53;;;11.13;;
70997;SDS011;58663;52.040;4.634;2023-11-21T05:02:23;27.85;;;11.77;;
70997;SDS011;58663;52.040;4.634;2023-11-21T05:04:48;30.63;;;12.23;;
70997;SDS011;58663;52.040;4.634;2023-11-21T05:07:14;36.45;;;10.88;;
70997;SDS011;58663;52.040;4.634;2023-11-21T05:09:42;33.83;;;10.73;;
70997;SDS011;58663;52.040;4.634;2023-11-21T05:12:10;38.45;;;11.20;;
70997;SDS011;58663;52.040;4.634;2023-11-21T05:14:36;34.83;;;11.02;;
70997;SDS011;58663;52.040;4.634;2023-11-21T05:17:02;30.42;;;10.10;;
70997;SDS011;58663;52.040;4.634;2023-11-21T05:19:29;32.75;;;10.57;;
70997;SDS011;58663;52.040;4.634;2023-11-21T05:21:54;37.05;;;11.95;;
70997;SDS011;58663;52.040;4.634;2023-11-21T05:24:19;36.22;;;11.30;;
70997;SDS011;58663;52.040;4.634;2023-11-21T05:26:45;26.73;;;10.27;;
70997;SDS011;58663;52.040;4.634;2023-11-21T05:29:10;33.92;;;10.98;;
70997;SDS011;58663;52.040;4.634;2023-11-21T05:31:36;35.08;;;10.57;;
70997;SDS011;58663;52.040;4.634;2023-11-21T05:34:01;26.15;;;10.63;;
70997;SDS011;58663;52.040;4.634;2023-11-21T05:36:28;31.48;;;10.95;;
70997;SDS011;58663;52.040;4.634;2023-11-21T05:38:53;34.78;;;11.38;;
70997;SDS011;58663;52.040;4.634;2023-11-21T05:41:18;38.13;;;11.35;;
70997;SDS011;58663;52.040;4.634;2023-11-21T05:43:44;38.15;;;10.90;;
70997;SDS011;58663;52.040;4.634;2023-11-21T05:46:09;32.63;;;10.13;;
70997;SDS011;58663;52.040;4.634;2023-11-21T05:48:34;30.35;;;10.63;;
70997;SDS011;58663;52.040;4.634;2023-11-21T05:51:02;26.58;;;10.20;;
70997;SDS011;58663;52.040;4.634;2023-11-21T05:53:29;28.30;;;10.60;;
70997;SDS011;58663;52.040;4.634;2023-11-21T05:55:55;27.25;;;10.23;;
70997;SDS011;58663;52.040;4.634;2023-11-21T05:58:20;33.20;;;10.13;;
70997;SDS011;58663;52.040;4.634;2023-11-21T06:00:45;32.28;;;10.52;;
70997;SDS011;58663;52.040;4.634;2023-11-21T06:03:11;29.92;;;9.30;;
70997;SDS011;58663;52.040;4.634;2023-11-21T06:05:37;29.58;;;11.13;;
70997;SDS011;58663;52.040;4.634;2023-11-21T06:08:02;25.65;;;9.77;;
70997;SDS011;58663;52.040;4.634;2023-11-21T06:10:28;25.02;;;9.70;;
70997;SDS011;58663;52.040;4.634;2023-11-21T06:12:53;28.30;;;10.35;;
70997;SDS011;58663;52.040;4.634;2023-11-21T06:15:19;35.17;;;10.20;;
70997;SDS011;58663;52.040;4.634;2023-11-21T06:17:46;26.70;;;9.50;;
70997;SDS011;58663;52.040;4.634;2023-11-21T06:20:14;31.08;;;10.18;;
70997;SDS011;58663;52.040;4.634;2023-11-21T06:22:41;28.55;;;10.60;;
70997;SDS011;58663;52.040;4.634;2023-11-21T06:25:07;25.05;;;9.63;;
70997;SDS011;58663;52.040;4.634;2023-11-21T06:27:34;25.25;;;9.73;;
70997;SDS011;58663;52.040;4.634;2023-11-21T06:30:03;28.17;;;9.20;;
70997;SDS011;58663;52.040;4.634;2023-11-21T06:32:29;24.00;;;9.65;;
70997;SDS011;58663;52.040;4.634;2023-11-21T06:34:58;20.90;;;8.48;;
70997;SDS011;58663;52.040;4.634;2023-11-21T06:37:27;22.55;;;8.70;;
70997;SDS011;58663;52.040;4.634;2023-11-21T06:39:52;25.40;;;8.30;;
70997;SDS011;58663;52.040;4.634;2023-11-21T06:42:18;23.27;;;9.18;;
70997;SDS011;58663;52.040;4.634;2023-11-21T06:44:44;21.48;;;8.57;;
70997;SDS011;58663;52.040;4.634;2023-11-21T06:47:10;15.48;;;8.00;;
70997;SDS011;58663;52.040;4.634;2023-11-21T06:49:36;21.15;;;8.27;;
70997;SDS011;58663;52.040;4.634;2023-11-21T06:52:01;23.35;;;9.00;;
70997;SDS011;58663;52.040;4.634;2023-11-21T06:54:28;23.42;;;8.82;;
70997;SDS011;58663;52.040;4.634;2023-11-21T06:56:53;21.63;;;8.50;;
70997;SDS011;58663;52.040;4.634;2023-11-21T06:59:19;28.77;;;9.93;;
70997;SDS011;58663;52.040;4.634;2023-11-21T07:01:44;22.45;;;8.82;;
70997;SDS011;58663;52.040;4.634;2023-11-21T07:04:09;26.85;;;9.23;;
70997;SDS011;58663;52.040;4.634;2023-11-21T07:06:35;24.40;;;9.13;;
70997;SDS011;58663;52.040;4.634;2023-11-21T07:09:00;20.45;;;8.65;;
70997;SDS011;58663;52.040;4.634;2023-11-21T07:11:26;23.00;;;7.88;;
70997;SDS011;58663;52.040;4.634;2023-11-21T07:13:52;25.10;;;8.30;;
70997;SDS011;58663;52.040;4.634;2023-11-21T07:16:18;32.38;;;8.25;;
70997;SDS011;58663;52.040;4.634;2023-11-21T07:18:43;25.23;;;9.68;;
70997;SDS011;58663;52.040;4.634;2023-11-21T07:21:09;21.90;;;8.00;;
70997;SDS011;58663;52.040;4.634;2023-11-21T07:23:37;28.23;;;7.40;;
70997;SDS011;58663;52.040;4.634;2023-11-21T07:26:02;30.35;;;8.02;;
70997;SDS011;58663;52.040;4.634;2023-11-21T07:28:28;28.30;;;7.30;;
70997;SDS011;58663;52.040;4.634;2023-11-21T07:30:54;21.77;;;6.78;;
70997;SDS011;58663;52.040;4.634;2023-11-21T07:33:20;32.85;;;7.47;;
70997;SDS011;58663;52.040;4.634;2023-11-21T07:35:46;30.25;;;8.15;;
70997;SDS011;58663;52.040;4.634;2023-11-21T07:38:12;28.67;;;7.53;;
70997;SDS011;58663;52.040;4.634;2023-11-21T07:40:38;25.75;;;6.57;;
70997;SDS011;58663;52.040;4.634;2023-11-21T07:43:03;24.50;;;5.88;;
70997;SDS011;58663;52.040;4.634;2023-11-21T07:45:28;31.75;;;7.03;;
70997;SDS011;58663;52.040;4.634;2023-11-21T07:47:54;23.60;;;7.40;;
70997;SDS011;58663;52.040;4.634;2023-11-21T07:50:20;20.13;;;5.93;;
70997;SDS011;58663;52.040;4.634;2023-11-21T07:52:47;16.48;;;6.40;;
70997;SDS011;58663;52.040;4.634;2023-11-21T07:55:14;24.83;;;6.47;;
70997;SDS011;58663;52.040;4.634;2023-11-21T07:57:40;30.52;;;6.82;;
70997;SDS011;58663;52.040;4.634;2023-11-21T08:00:06;25.45;;;7.60;;
70997;SDS011;58663;52.040;4.634;2023-11-21T08:02:34;22.65;;;6.75;;
70997;SDS011;58663;52.040;4.634;2023-11-21T08:04:59;25.92;;;7.85;;
70997;SDS011;58663;52.040;4.634;2023-11-21T08:07:25;25.52;;;7.43;;
70997;SDS011;58663;52.040;4.634;2023-11-21T08:09:51;22.10;;;7.50;;
70997;SDS011;58663;52.040;4.634;2023-11-21T08:12:17;24.77;;;7.65;;
70997;SDS011;58663;52.040;4.634;2023-11-21T08:14:43;23.13;;;7.18;;
70997;SDS011;58663;52.040;4.634;2023-11-21T08:17:09;21.52;;;7.35;;
70997;SDS011;58663;52.040;4.634;2023-11-21T08:19:35;29.48;;;8.25;;
70997;SDS011;58663;52.040;4.634;2023-11-21T08:22:01;33.35;;;7.70;;
70997;SDS011;58663;52.040;4.634;2023-11-21T08:24:27;24.02;;;7.57;;
70997;SDS011;58663;52.040;4.634;2023-11-21T08:26:53;26.35;;;7.35;;
70997;SDS011;58663;52.040;4.634;2023-11-21T08:29:19;28.13;;;8.45;;
70997;SDS011;58663;52.040;4.634;2023-11-21T08:31:44;32.92;;;8.05;;
70997;SDS011;58663;52.040;4.634;2023-11-21T08:34:13;19.95;;;7.85;;
70997;SDS011;58663;52.040;4.634;2023-11-21T08:36:43;30.10;;;8.63;;
70997;SDS011;58663;52.040;4.634;2023-11-21T08:39:08;22.55;;;7.13;;
70997;SDS011;58663;52.040;4.634;2023-11-21T08:41:34;19.77;;;8.10;;
70997;SDS011;58663;52.040;4.634;2023-11-21T08:44:01;26.35;;;8.15;;
70997;SDS011;58663;52.040;4.634;2023-11-21T08:46:30;20.15;;;7.00;;
70997;SDS011;58663;52.040;4.634;2023-11-21T08:48:56;19.80;;;7.30;;
70997;SDS011;58663;52.040;4.634;2023-11-21T08:51:21;27.38;;;8.55;;
70997;SDS011;58663;52.040;4.634;2023-11-21T08:53:46;31.65;;;8.60;;
70997;SDS011;58663;52.040;4.634;2023-11-21T08:56:12;32.50;;;8.57;;
70997;SDS011;58663;52.040;4.634;2023-11-21T08:58:39;26.67;;;8.70;;
70997;SDS011;58663;52.040;4.634;2023-11-21T09:01:05;20.98;;;8.80;;
70997;SDS011;58663;52.040;4.634;2023-11-21T09:03:32;26.90;;;10.07;;
70997;SDS011;58663;52.040;4.634;2023-11-21T09:05:59;22.88;;;8.52;;
70997;SDS011;58663;52.040;4.634;2023-11-21T09:08:24;21.75;;;8.10;;
70997;SDS011;58663;52.040;4.634;2023-11-21T09:10:50;21.00;;;8.10;;
70997;SDS011;58663;52.040;4.634;2023-11-21T09:13:15;22.38;;;8.98;;
70997;SDS011;58663;52.040;4.634;2023-11-21T09:15:43;25.23;;;9.00;;
70997;SDS011;58663;52.040;4.634;2023-11-21T09:18:11;20.60;;;9.43;;
70997;SDS011;58663;52.040;4.634;2023-11-21T09:20:40;23.85;;;8.63;;
70997;SDS011;58663;52.040;4.634;2023-11-21T09:23:05;27.10;;;9.38;;
70997;SDS011;58663;52.040;4.634;2023-11-21T09:25:32;29.05;;;9.30;;
70997;SDS011;58663;52.040;4.634;2023-11-21T09:27:57;19.60;;;8.75;;
70997;SDS011;58663;52.040;4.634;2023-11-21T09:30:23;22.77;;;8.88;;
70997;SDS011;58663;52.040;4.634;2023-11-21T09:32:49;29.08;;;10.23;;
70997;SDS011;58663;52.040;4.634;2023-11-21T09:35:15;27.40;;;9.30;;
70997;SDS011;58663;52.040;4.634;2023-11-21T09:37:43;32.67;;;9.50;;
70997;SDS011;58663;52.040;4.634;2023-11-21T09:40:11;25.65;;;9.27;;
70997;SDS011;58663;52.040;4.634;2023-11-21T09:42:54;24.20;;;9.07;;
70997;SDS011;58663;52.040;4.634;2023-11-21T09:45:25;25.73;;;8.70;;
70997;SDS011;58663;52.040;4.634;2023-11-21T09:47:55;20.42;;;7.95;;
70997;SDS011;58663;52.040;4.634;2023-11-21T09:50:21;16.67;;;7.88;;
70997;SDS011;58663;52.040;4.634;2023-11-21T09:52:54;21.65;;;8.07;;
70997;SDS011;58663;52.040;4.634;2023-11-21T09:55:26;14.90;;;6.22;;
70997;SDS011;58663;52.040;4.634;2023-11-21T09:57:53;17.67;;;6.18;;
70997;SDS011;58663;52.040;4.634;2023-11-21T10:00:19;17.13;;;6.97;;
70997;SDS011;58663;52.040;4.634;2023-11-21T10:02:48;17.15;;;6.20;;
70997;SDS011;58663;52.040;4.634;2023-11-21T10:05:15;15.23;;;6.75;;
70997;SDS011;58663;52.040;4.634;2023-11-21T10:07:43;16.75;;;6.75;;
70997;SDS011;58663;52.040;4.634;2023-11-21T10:10:09;14.05;;;6.35;;
70997;SDS011;58663;52.040;4.634;2023-11-21T10:12:35;15.65;;;5.60;;
70997;SDS011;58663;52.040;4.634;2023-11-21T10:15:01;12.73;;;5.97;;
70997;SDS011;58663;52.040;4.634;2023-11-21T10:17:28;17.50;;;6.20;;
70997;SDS011;58663;52.040;4.634;2023-11-21T10:20:01;11.73;;;5.93;;
70997;SDS011;58663;52.040;4.634;2023-11-21T10:22:31;19.33;;;7.07;;
70997;SDS011;58663;52.040;4.634;2023-11-21T10:24:56;15.60;;;6.05;;
70997;SDS011;58663;52.040;4.634;2023-11-21T10:27:21;16.30;;;5.95;;
70997;SDS011;58663;52.040;4.634;2023-11-21T10:29:48;13.93;;;6.32;;
70997;SDS011;58663;52.040;4.634;2023-11-21T10:32:16;15.32;;;7.03;;
70997;SDS011;58663;52.040;4.634;2023-11-21T10:34:41;14.00;;;6.72;;
70997;SDS011;58663;52.040;4.634;2023-11-21T10:37:13;13.63;;;6.18;;
70997;SDS011;58663;52.040;4.634;2023-11-21T10:39:38;11.57;;;5.60;;
70997;SDS011;58663;52.040;4.634;2023-11-21T10:42:04;13.20;;;6.45;;
70997;SDS011;58663;52.040;4.634;2023-11-21T10:44:33;15.68;;;6.32;;
70997;SDS011;58663;52.040;4.634;2023-11-21T10:46:59;15.80;;;6.47;;
70997;SDS011;58663;52.040;4.634;2023-11-21T10:49:26;13.05;;;6.07;;
70997;SDS011;58663;52.040;4.634;2023-11-21T10:51:52;13.65;;;6.40;;
70997;SDS011;58663;52.040;4.634;2023-11-21T10:54:19;15.15;;;6.78;;
70997;SDS011;58663;52.040;4.634;2023-11-21T10:56:45;15.05;;;6.72;;
70997;SDS011;58663;52.040;4.634;2023-11-21T10:59:12;18.02;;;7.03;;
70997;SDS011;58663;52.040;4.634;2023-11-21T11:01:41;16.88;;;7.65;;
70997;SDS011;58663;52.040;4.634;2023-11-21T11:04:08;16.77;;;8.10;;
70997;SDS011;58663;52.040;4.634;2023-11-21T11:06:39;21.70;;;8.27;;
70997;SDS011;58663;52.040;4.634;2023-11-21T11:09:06;19.58;;;8.55;;
70997;SDS011;58663;52.040;4.634;2023-11-21T11:11:33;20.77;;;10.00;;
70997;SDS011;58663;52.040;4.634;2023-11-21T11:13:59;24.50;;;10.02;;
70997;SDS011;58663;52.040;4.634;2023-11-21T11:16:25;16.40;;;8.38;;
70997;SDS011;58663;52.040;4.634;2023-11-21T11:18:51;20.88;;;9.40;;
70997;SDS011;58663;52.040;4.634;2023-11-21T11:21:21;19.05;;;9.65;;
70997;SDS011;58663;52.040;4.634;2023-11-21T11:24:30;19.05;;;9.18;;
70997;SDS011;58663;52.040;4.634;2023-11-21T11:26:47;22.42;;;10.13;;
70997;SDS011;58663;52.040;4.634;2023-11-21T11:34:45;22.00;;;9.77;;
70997;SDS011;58663;52.040;4.634;2023-11-21T11:37:15;22.30;;;9.35;;
70997;SDS011;58663;52.040;4.634;2023-11-21T11:39:41;18.95;;;8.65;;
70997;SDS011;58663;52.040;4.634;2023-11-21T11:42:10;19.92;;;8.77;;
70997;SDS011;58663;52.040;4.634;2023-11-21T11:47:27;15.70;;;7.28;;
70997;SDS011;58663;52.040;4.634;2023-11-21T11:50:07;15.23;;;6.97;;
70997;SDS011;58663;52.040;4.634;2023-11-21T11:52:41;19.70;;;6.97;;
70997;SDS011;58663;52.040;4.634;2023-11-21T11:55:08;17.60;;;6.97;;
70997;SDS011;58663;52.040;4.634;2023-11-21T11:57:44;16.98;;;7.05;;
70997;SDS011;58663;52.040;4.634;2023-11-21T12:02:54;12.75;;;6.43;;
70997;SDS011;58663;52.040;4.634;2023-11-21T12:05:22;16.20;;;6.45;;
70997;SDS011;58663;52.040;4.634;2023-11-21T12:07:51;12.35;;;5.80;;
70997;SDS011;58663;52.040;4.634;2023-11-21T12:12:45;11.82;;;5.85;;
70997;SDS011;58663;52.040;4.634;2023-11-21T12:15:14;13.82;;;6.40;;
70997;SDS011;58663;52.040;4.634;2023-11-21T12:17:41;16.30;;;7.60;;
70997;SDS011;58663;52.040;4.634;2023-11-21T12:20:08;15.48;;;7.28;;
70997;SDS011;58663;52.040;4.634;2023-11-21T12:22:51;15.07;;;7.10;;
70997;SDS011;58663;52.040;4.634;2023-11-21T12:25:19;13.50;;;7.00;;
70997;SDS011;58663;52.040;4.634;2023-11-21T12:27:49;16.70;;;7.20;;
70997;SDS011;58663;52.040;4.634;2023-11-21T12:30:16;16.33;;;7.07;;
70997;SDS011;58663;52.040;4.634;2023-11-21T12:32:50;13.60;;;6.88;;
70997;SDS011;58663;52.040;4.634;2023-11-21T12:35:17;14.97;;;7.37;;
70997;SDS011;58663;52.040;4.634;2023-11-21T12:37:47;14.35;;;7.55;;
70997;SDS011;58663;52.040;4.634;2023-11-21T12:40:13;13.93;;;6.85;;
70997;SDS011;58663;52.040;4.634;2023-11-21T12:42:46;12.30;;;7.13;;
70997;SDS011;58663;52.040;4.634;2023-11-21T12:47:55;11.60;;;6.18;;
70997;SDS011;58663;52.040;4.634;2023-11-21T12:50:24;12.70;;;7.00;;
70997;SDS011;58663;52.040;4.634;2023-11-21T12:52:54;12.02;;;6.78;;
70997;SDS011;58663;52.040;4.634;2023-11-21T12:55:23;15.07;;;7.60;;
70997;SDS011;58663;52.040;4.634;2023-11-21T12:57:52;14.07;;;6.65;;
70997;SDS011;58663;52.040;4.634;2023-11-21T13:00:28;10.73;;;6.53;;
70997;SDS011;58663;52.040;4.634;2023-11-21T13:03:05;16.67;;;7.35;;
70997;SDS011;58663;52.040;4.634;2023-11-21T13:05:35;11.05;;;6.35;;
70997;SDS011;58663;52.040;4.634;2023-11-21T13:08:06;14.05;;;7.43;;
70997;SDS011;58663;52.040;4.634;2023-11-21T13:10:38;17.52;;;6.80;;
70997;SDS011;58663;52.040;4.634;2023-11-21T13:13:05;12.13;;;7.15;;
70997;SDS011;58663;52.040;4.634;2023-11-21T13:15:33;15.68;;;8.27;;
70997;SDS011;58663;52.040;4.634;2023-11-21T13:18:00;12.15;;;7.38;;
70997;SDS011;58663;52.040;4.634;2023-11-21T13:20:26;12.88;;;7.13;;
70997;SDS011;58663;52.040;4.634;2023-11-21T13:22:54;11.98;;;7.15;;
70997;SDS011;58663;52.040;4.634;2023-11-21T13:25:24;17.52;;;7.78;;
70997;SDS011;58663;52.040;4.634;2023-11-21T13:27:52;11.70;;;6.82;;
70997;SDS011;58663;52.040;4.634;2023-11-21T13:30:21;16.38;;;7.07;;
70997;SDS011;58663;52.040;4.634;2023-11-21T13:32:59;12.82;;;6.72;;
70997;SDS011;58663;52.040;4.634;2023-11-21T13:35:30;14.18;;;7.30;;
70997;SDS011;58663;52.040;4.634;2023-11-21T13:38:06;15.23;;;8.48;;
70997;SDS011;58663;52.040;4.634;2023-11-21T13:40:34;18.05;;;7.70;;
70997;SDS011;58663;52.040;4.634;2023-11-21T13:43:07;13.15;;;7.40;;
70997;SDS011;58663;52.040;4.634;2023-11-21T13:45:35;16.48;;;8.20;;
70997;SDS011;58663;52.040;4.634;2023-11-21T13:48:01;17.13;;;6.90;;
70997;SDS011;58663;52.040;4.634;2023-11-21T13:50:27;18.30;;;7.95;;
70997;SDS011;58663;52.040;4.634;2023-11-21T13:52:59;15.63;;;8.13;;
70997;SDS011;58663;52.040;4.634;2023-11-21T13:55:30;19.40;;;8.02;;
70997;SDS011;58663;52.040;4.634;2023-11-21T13:57:55;14.07;;;8.13;;
70997;SDS011;58663;52.040;4.634;2023-11-21T14:00:21;15.98;;;8.27;;
70997;SDS011;58663;52.040;4.634;2023-11-21T14:03:06;20.17;;;9.10;;
70997;SDS011;58663;52.040;4.634;2023-11-21T14:05:41;15.75;;;7.38;;
70997;SDS011;58663;52.040;4.634;2023-11-21T14:08:08;17.48;;;8.77;;
70997;SDS011;58663;52.040;4.634;2023-11-21T14:10:33;16.42;;;8.75;;
70997;SDS011;58663;52.040;4.634;2023-11-21T14:13:15;18.25;;;8.80;;
70997;SDS011;58663;52.040;4.634;2023-11-21T14:15:41;14.98;;;8.57;;
70997;SDS011;58663;52.040;4.634;2023-11-21T14:18:10;14.20;;;8.38;;
70997;SDS011;58663;52.040;4.634;2023-11-21T14:20:38;16.23;;;8.90;;
70997;SDS011;58663;52.040;4.634;2023-11-21T14:23:05;21.52;;;9.30;;
70997;SDS011;58663;52.040;4.634;2023-11-21T14:25:32;19.25;;;8.38;;
70997;SDS011;58663;52.040;4.634;2023-11-21T14:27:58;18.27;;;8.63;;
70997;SDS011;58663;52.040;4.634;2023-11-21T14:30:24;17.60;;;8.80;;
70997;SDS011;58663;52.040;4.634;2023-11-21T14:32:50;16.48;;;8.82;;
70997;SDS011;58663;52.040;4.634;2023-11-21T14:35:16;18.85;;;8.88;;
70997;SDS011;58663;52.040;4.634;2023-11-21T14:37:42;18.45;;;8.50;;
70997;SDS011;58663;52.040;4.634;2023-11-21T14:40:08;18.85;;;9.07;;
70997;SDS011;58663;52.040;4.634;2023-11-21T14:42:34;19.42;;;9.43;;
70997;SDS011;58663;52.040;4.634;2023-11-21T14:45:02;17.85;;;9.27;;